Time;durP1;ratioP1;P1;durP2;ratioP2;P2;SDS_P1;SDS_P2;PMS_P1;PMS_P2;Temp;Humidity;BMP_temperature;BMP_pressure;BME280_temperature;BME280_humidity;BME280_pressure;Samples;Min_cycle;Max_cycle;Signal;HPM_P1;HPM_P2
2023/09/30 00:00:08;;;;;;;443.15;397.05;;;;;;;21.96;55.02;99823.16;313599;31;3002;-76
2023/09/30 00:00:18;;;;;;;437.55;391.65;;;;;;;21.95;54.97;99826.81;311780;31;3489;-76
2023/09/30 00:00:29;;;;;;;437.73;392.20;;;;;;;21.93;54.77;99818.09;312883;31;911;-76
2023/09/30 00:00:39;;;;;;;441.37;395.57;;;;;;;21.91;55.10;99825.38;310921;31;3419;-77
2023/09/30 00:00:50;;;;;;;441.02;395.13;;;;;;;21.89;54.93;99822.84;312616;31;2442;-77
2023/09/30 00:01:00;;;;;;;444.73;398.60;;;;;;;21.89;55.05;99820.19;309969;31;1376;-77
2023/09/30 00:01:11;;;;;;;441.70;395.98;;;;;;;21.89;55.15;99822.00;308152;31;2217;-78
2023/09/30 00:01:22;;;;;;;443.80;398.10;;;;;;;21.88;55.42;99821.16;309102;31;2754;-77
2023/09/30 00:01:33;;;;;;;435.98;390.48;;;;;;;21.88;55.63;99820.31;307802;31;3253;-77
2023/09/30 00:01:44;;;;;;;433.33;387.92;;;;;;;21.88;55.27;99822.97;306348;32;888;-77
2023/09/30 00:01:54;;;;;;;426.10;380.88;;;;;;;21.87;55.01;99821.28;307629;31;4022;-77
2023/09/30 00:02:05;;;;;;;428.20;382.85;;;;;;;21.86;55.40;99819.59;306616;31;4594;-77
2023/09/30 00:02:15;;;;;;;428.87;383.23;;;;;;;21.87;55.06;99821.28;309604;31;773;-77
2023/09/30 00:02:26;;;;;;;432.70;387.17;;;;;;;21.86;55.01;99817.78;307278;31;4183;-76
2023/09/30 00:02:36;;;;;;;429.33;383.97;;;;;;;21.87;55.21;99822.13;306249;32;4819;-76
2023/09/30 00:02:47;;;;;;;423.00;377.98;;;;;;;21.90;55.20;99818.34;303776;32;4433;-77
2023/09/30 00:02:57;;;;;;;429.38;384.15;;;;;;;21.90;55.38;99818.34;307269;32;836;-77
2023/09/30 00:03:07;;;;;;;434.47;389.03;;;;;;;21.90;54.92;99821.88;303581;32;3326;-77
2023/09/30 00:03:18;;;;;;;440.23;394.60;;;;;;;21.90;55.26;99821.03;302532;32;3209;-77
2023/09/30 00:03:28;;;;;;;440.80;395.05;;;;;;;21.93;54.95;99826.09;306327;32;900;-77
2023/09/30 00:03:39;;;;;;;440.30;394.63;;;;;;;21.94;54.78;99819.78;304683;31;4256;-77
2023/09/30 00:03:49;;;;;;;432.27;387.00;;;;;;;21.92;55.14;99816.41;303663;32;5261;-77
2023/09/30 00:04:05;;;;;;;423.73;378.67;;;;;;;21.91;54.97;99826.22;301943;32;1113;-77
2023/09/30 00:04:15;;;;;;;426.00;380.77;;;;;;;21.90;54.79;99823.69;298077;33;905;-77
2023/09/30 00:04:27;;;;;;;423.93;378.90;;;;;;;21.87;55.44;99823.94;296285;33;6797;-77
2023/09/30 00:04:38;;;;;;;424.65;379.63;;;;;;;21.87;55.27;99823.94;295769;33;6031;-77
2023/09/30 00:04:49;;;;;;;425.80;380.73;;;;;;;21.85;55.40;99825.91;294589;33;6253;-77
2023/09/30 00:04:59;;;;;;;426.45;381.30;;;;;;;21.84;55.40;99813.53;295720;33;1295;-77
2023/09/30 00:05:10;;;;;;;422.20;376.63;;;;;;;21.84;55.63;99818.88;292759;33;6376;-77
2023/09/30 00:05:20;;;;;;;422.83;377.23;;;;;;;21.84;55.51;99825.03;289616;33;4267;-77
2023/09/30 00:05:30;;;;;;;430.37;384.23;;;;;;;21.84;55.72;99817.06;289087;34;1220;-77
2023/09/30 00:05:41;;;;;;;434.85;389.08;;;;;;;21.86;55.55;99816.91;289811;34;1817;-77
2023/09/30 00:05:51;;;;;;;438.97;393.03;;;;;;;21.87;55.67;99823.94;284852;34;7312;-77
2023/09/30 00:06:02;;;;;;;429.40;384.08;;;;;;;21.88;55.48;99814.97;280368;34;8143;-77
2023/09/30 00:06:12;;;;;;;426.17;380.93;;;;;;;21.87;55.51;99823.94;283568;34;968;-76
2023/09/30 00:06:23;;;;;;;424.47;379.23;;;;;;;21.84;55.03;99818.88;282305;34;8293;-76
2023/09/30 00:08:23;;;;;;;395.55;345.24;;;;;;;21.72;55.29;99815.41;2487839;27;20487;-77
2023/09/30 00:08:33;;;;;;;419.23;374.37;;;;;;;21.73;55.72;99819.78;351533;28;1028;-77
2023/09/30 00:08:44;;;;;;;418.35;373.42;;;;;;;21.72;55.42;99826.06;349775;28;1928;-77
2023/09/30 00:08:56;;;;;;;418.40;373.50;;;;;;;21.73;55.86;99821.59;346252;28;1768;-77
2023/09/30 00:09:07;;;;;;;419.70;374.73;;;;;;;21.70;55.68;99816.50;345095;28;1571;-77
2023/09/30 00:09:17;;;;;;;412.17;367.27;;;;;;;21.69;55.42;99820.16;346002;28;1437;-77
2023/09/30 00:09:28;;;;;;;411.95;367.05;;;;;;;21.69;55.16;99821.00;347450;28;1412;-77
2023/09/30 00:09:38;;;;;;;406.23;361.63;;;;;;;21.70;55.56;99820.03;347511;28;847;-77
2023/09/30 00:09:51;;;;;;;415.13;370.27;;;;;;;21.70;55.08;99821.84;347306;28;1315;-78
2023/09/30 00:10:03;;;;;;;410.58;365.92;;;;;;;21.72;55.02;99822.56;349395;28;1302;-78
2023/09/30 00:10:14;;;;;;;409.02;364.48;;;;;;;21.72;55.29;99819.91;348921;28;835;-78
2023/09/30 00:10:25;;;;;;;411.48;367.00;;;;;;;21.73;55.01;99819.78;345421;28;1298;-77
2023/09/30 00:10:35;;;;;;;410.10;365.75;;;;;;;21.73;55.36;99826.91;345938;28;1337;-77
2023/09/30 00:10:46;;;;;;;405.47;360.93;;;;;;;21.71;55.19;99818.19;348765;28;1896;-77
2023/09/30 00:10:57;;;;;;;409.70;364.98;;;;;;;21.71;55.45;99818.19;348606;28;1424;-77
2023/09/30 00:11:07;;;;;;;419.93;374.90;;;;;;;21.69;55.18;99814.81;346086;28;1582;-77
2023/09/30 00:11:18;;;;;;;418.23;373.47;;;;;;;21.65;55.41;99824.06;346102;28;1569;-77
2023/09/30 00:11:28;;;;;;;411.45;366.85;;;;;;;21.63;55.64;99826.03;344706;28;1320;-77
2023/09/30 00:11:39;;;;;;;407.20;362.60;;;;;;;21.63;55.76;99826.03;346302;28;927;-77
2023/09/30 00:11:49;;;;;;;406.55;361.88;;;;;;;21.61;55.71;99817.31;347803;28;1321;-77
2023/09/30 00:12:00;;;;;;;403.63;359.13;;;;;;;21.63;55.45;99815.38;346772;28;1329;-77
2023/09/30 00:12:10;;;;;;;400.23;355.95;;;;;;;21.65;55.56;99824.06;341817;28;1527;-77
2023/09/30 00:12:20;;;;;;;402.83;358.70;;;;;;;21.66;55.50;99815.09;343987;28;1526;-77
2023/09/30 00:12:31;;;;;;;408.60;364.10;;;;;;;21.65;56.01;99813.41;344447;28;1373;-77
2023/09/30 00:12:41;;;;;;;414.23;369.23;;;;;;;21.64;55.24;99814.38;346069;28;831;-77
2023/09/30 00:12:52;;;;;;;416.03;371.00;;;;;;;21.65;55.72;99816.94;343268;28;1752;-76
2023/09/30 00:13:02;;;;;;;410.13;365.33;;;;;;;21.65;55.64;99822.25;343097;28;1357;-76
2023/09/30 00:13:13;;;;;;;404.60;360.13;;;;;;;21.66;55.90;99809.78;342196;28;1695;-77
2023/09/30 00:13:23;;;;;;;405.27;360.92;;;;;;;21.66;55.36;99815.09;343436;28;854;-77
2023/09/30 00:13:34;;;;;;;409.55;365.27;;;;;;;21.68;55.68;99818.47;343397;28;876;-77
2023/09/30 00:13:45;;;;;;;413.73;369.33;;;;;;;21.68;55.36;99821.13;342989;28;1239;-76
2023/09/30 00:13:56;;;;;;;414.45;369.95;;;;;;;21.68;55.74;99815.78;340721;29;930;-77
2023/09/30 00:14:06;;;;;;;415.57;371.00;;;;;;;21.68;55.39;99819.31;342220;28;1222;-76
2023/09/30 00:14:17;;;;;;;414.85;370.25;;;;;;;21.68;55.46;99818.47;341461;28;1326;-77
2023/09/30 00:14:28;;;;;;;417.03;372.40;;;;;;;21.69;55.60;99823.66;338392;28;1205;-77
2023/09/30 00:14:40;;;;;;;419.63;374.85;;;;;;;21.69;55.69;99818.34;344579;28;1446;-76
2023/09/30 00:14:50;;;;;;;423.52;378.67;;;;;;;21.71;55.83;99815.53;346966;28;1428;-77
2023/09/30 00:15:01;;;;;;;418.77;373.80;;;;;;;21.71;55.56;99815.53;347247;28;1190;-77
2023/09/30 00:15:11;;;;;;;412.90;368.00;;;;;;;21.69;55.33;99814.81;344163;28;880;-77
2023/09/30 00:15:22;;;;;;;406.37;361.70;;;;;;;21.69;55.49;99815.66;344797;28;1083;-77
2023/09/30 00:15:33;;;;;;;400.97;356.63;;;;;;;21.70;55.54;99816.50;344716;28;1188;-77
2023/09/30 00:15:43;;;;;;;406.08;361.63;;;;;;;21.70;55.31;99816.50;342703;28;2702;-78
2023/09/30 00:15:54;;;;;;;414.57;369.80;;;;;;;21.70;55.72;99821.84;341946;28;1292;-78
2023/09/30 00:16:04;;;;;;;423.47;378.43;;;;;;;21.68;55.69;99823.78;339930;28;896;-76
2023/09/30 00:16:17;;;;;;;420.48;375.52;;;;;;;21.65;55.68;99813.41;339622;28;1756;-75
2023/09/30 00:16:27;;;;;;;413.95;369.23;;;;;;;21.64;55.67;99812.56;342590;28;5479;-75
2023/09/30 00:16:37;;;;;;;407.70;363.17;;;;;;;21.66;55.54;99815.09;344994;28;5134;-76
2023/09/30 00:16:48;;;;;;;406.13;361.77;;;;;;;21.67;55.66;99816.78;342947;28;2145;-76
2023/09/30 00:16:59;;;;;;;410.63;365.58;;;;;;;21.66;55.91;99823.09;341728;28;2957;-76
2023/09/30 00:17:09;;;;;;;408.92;363.90;;;;;;;21.65;55.39;99814.25;339268;29;1303;-77
2023/09/30 00:17:20;;;;;;;408.70;363.73;;;;;;;21.63;55.66;99815.38;338129;29;1327;-76
2023/09/30 00:17:30;;;;;;;402.55;358.25;;;;;;;21.58;55.60;99819.25;337090;29;1271;-76
2023/09/30 00:17:41;;;;;;;403.40;359.13;;;;;;;21.61;55.71;99817.31;340799;29;962;-76
2023/09/30 00:17:51;;;;;;;403.50;359.23;;;;;;;21.58;55.83;99824.59;341760;28;953;-76
2023/09/30 00:18:02;;;;;;;407.10;362.77;;;;;;;21.57;55.41;99809.56;340332;28;2031;-76
2023/09/30 00:18:13;;;;;;;409.52;364.95;;;;;;;21.51;55.54;99811.91;335380;29;1518;-76
2023/09/30 00:18:23;;;;;;;408.88;364.13;;;;;;;21.46;56.07;99820.25;339414;29;1528;-76
2023/09/30 00:18:34;;;;;;;408.67;363.73;;;;;;;21.47;56.42;99819.28;337093;28;1826;-76
2023/09/30 00:18:44;;;;;;;406.20;361.45;;;;;;;21.50;55.72;99816.38;332835;29;2011;-76
2023/09/30 00:18:55;;;;;;;407.67;362.90;;;;;;;21.52;55.75;99818.91;331626;29;819;-76
2023/09/30 00:19:06;;;;;;;414.05;369.17;;;;;;;21.54;55.60;99808.97;327671;29;2143;-76
2023/09/30 00:19:16;;;;;;;424.85;379.63;;;;;;;21.56;55.76;99815.88;328751;29;2342;-76
2023/09/30 00:19:26;;;;;;;421.70;376.77;;;;;;;21.59;55.43;99812.09;328087;30;814;-76
2023/09/30 00:19:37;;;;;;;410.88;366.45;;;;;;;21.50;55.60;99821.69;322389;30;1035;-76
2023/09/30 00:19:47;;;;;;;406.27;361.87;;;;;;;21.50;55.93;99821.69;323860;30;1418;-77
2023/09/30 00:19:59;;;;;;;408.92;364.10;;;;;;;21.49;55.76;99814.69;323035;30;1405;-77
2023/09/30 00:20:09;;;;;;;413.50;368.30;;;;;;;21.49;56.41;99814.69;325665;30;923;-76
2023/09/30 00:20:20;;;;;;;412.10;367.02;;;;;;;21.51;56.14;99822.56;323003;30;1871;-76
2023/09/30 00:20:31;;;;;;;405.50;361.02;;;;;;;21.52;55.91;99816.25;320857;30;2085;-76
2023/09/30 00:20:42;;;;;;;408.15;363.45;;;;;;;21.54;55.83;99815.16;320538;30;2556;-76
2023/09/30 00:20:53;;;;;;;407.65;362.77;;;;;;;21.57;55.53;99816.72;320063;30;1240;-76
2023/09/30 00:21:03;;;;;;;408.47;363.63;;;;;;;21.57;56.16;99811.38;320079;30;2542;-76
2023/09/30 00:21:15;;;;;;;410.38;365.73;;;;;;;21.56;55.80;99810.53;318480;30;2706;-76
2023/09/30 00:21:25;;;;;;;405.63;361.20;;;;;;;21.57;55.89;99806.06;321234;30;1459;-76
2023/09/30 00:21:35;;;;;;;412.23;367.63;;;;;;;21.55;55.64;99822.16;321399;30;2796;-76
2023/09/30 00:21:46;;;;;;;418.90;373.90;;;;;;;21.56;55.75;99810.53;321957;30;1778;-75
2023/09/30 00:21:57;;;;;;;421.38;376.30;;;;;;;21.56;56.01;99807.03;322986;30;1370;-76
2023/09/30 00:22:07;;;;;;;421.17;375.98;;;;;;;21.56;55.67;99810.53;316372;30;963;-76
2023/09/30 00:22:18;;;;;;;417.23;372.33;;;;;;;21.55;55.61;99814.19;321829;30;1695;-76
2023/09/30 00:22:28;;;;;;;417.40;372.63;;;;;;;21.54;55.74;99816.97;319055;30;2392;-76
2023/09/30 00:22:38;;;;;;;412.73;368.23;;;;;;;21.51;55.41;99807.41;314091;31;1213;-76
2023/09/30 00:22:49;;;;;;;413.90;369.17;;;;;;;21.53;55.99;99807.28;313664;31;2873;-76
2023/09/30 00:22:59;;;;;;;413.60;368.83;;;;;;;21.54;55.62;99808.97;310373;31;3157;-76
2023/09/30 00:23:10;;;;;;;411.43;366.77;;;;;;;21.53;55.94;99809.94;312781;31;1711;-75
2023/09/30 00:23:21;;;;;;;410.27;365.77;;;;;;;21.54;55.97;99809.81;311832;31;3270;-76
2023/09/30 00:23:31;;;;;;;414.40;369.63;;;;;;;21.53;55.75;99808.13;308481;31;3310;-76
2023/09/30 00:23:42;;;;;;;415.97;371.10;;;;;;;21.54;55.92;99806.31;305889;32;3291;-76
2023/09/30 00:23:52;;;;;;;419.53;374.57;;;;;;;21.55;55.88;99803.53;305131;32;1354;-76
2023/09/30 00:24:03;;;;;;;416.57;371.73;;;;;;;21.58;55.79;99807.75;304175;32;2790;-76
2023/09/30 00:24:14;;;;;;;407.20;362.58;;;;;;;21.59;56.52;99809.44;302970;32;2181;-76
2023/09/30 00:24:25;;;;;;;402.10;357.27;;;;;;;21.61;56.40;99809.31;304335;32;1035;-76
2023/09/30 00:24:35;;;;;;;407.35;362.63;;;;;;;21.61;56.06;99817.31;306371;32;2539;-77
2023/09/30 00:24:46;;;;;;;411.63;366.92;;;;;;;21.58;55.71;99815.75;302744;32;3161;-76
2023/09/30 00:24:57;;;;;;;412.65;368.08;;;;;;;21.57;55.80;99806.06;300077;32;3995;-76
2023/09/30 00:25:07;;;;;;;415.33;370.63;;;;;;;21.58;56.12;99813.09;303198;32;872;-76
2023/09/30 00:25:18;;;;;;;422.38;377.55;;;;;;;21.58;55.72;99810.41;303370;32;4483;-76
2023/09/30 00:25:28;;;;;;;420.60;375.97;;;;;;;21.57;55.96;99808.72;301620;32;4426;-76
2023/09/30 00:25:39;;;;;;;415.38;371.02;;;;;;;21.56;55.83;99804.38;294888;33;2804;-76
2023/09/30 00:25:50;;;;;;;406.90;362.53;;;;;;;21.58;55.72;99813.09;297976;32;5445;-76
2023/09/30 00:26:00;;;;;;;411.50;366.90;;;;;;;21.57;56.31;99817.56;298911;32;6008;-76
2023/09/30 00:26:11;;;;;;;420.98;375.75;;;;;;;21.58;55.89;99813.09;298214;33;2087;-79
2023/09/30 00:26:22;;;;;;;428.97;383.63;;;;;;;21.54;55.84;99809.81;295075;33;3483;-77
2023/09/30 00:26:32;;;;;;;427.27;382.02;;;;;;;21.55;56.24;99810.66;294605;33;3925;-77
2023/09/30 00:26:42;;;;;;;419.73;374.98;;;;;;;21.54;56.08;99807.16;292364;33;3841;-77
2023/09/30 00:26:53;;;;;;;421.87;376.90;;;;;;;21.54;55.83;99811.63;296805;33;1633;-77
2023/09/30 00:27:03;;;;;;;422.50;376.92;;;;;;;21.54;56.13;99812.50;293756;33;4847;-77
2023/09/30 00:27:14;;;;;;;418.90;373.40;;;;;;;21.55;55.80;99813.34;293940;33;6407;-77
2023/09/30 00:27:24;;;;;;;408.37;363.33;;;;;;;21.57;55.99;99806.91;294767;33;1236;-77
2023/09/30 00:27:34;;;;;;;407.48;362.85;;;;;;;21.60;55.78;99807.63;294877;33;5855;-77
2023/09/30 00:27:45;;;;;;;405.33;360.83;;;;;;;21.60;56.08;99813.78;293501;33;5972;-77
2023/09/30 00:27:55;;;;;;;410.30;365.63;;;;;;;21.60;56.11;99804.97;294931;33;1071;-77
2023/09/30 00:28:06;;;;;;;415.00;370.10;;;;;;;21.62;56.17;99808.34;292625;33;5794;-77
2023/09/30 00:28:16;;;;;;;422.92;377.75;;;;;;;21.63;56.15;99804.72;293642;33;6444;-77
2023/09/30 00:28:28;;;;;;;427.77;382.40;;;;;;;21.65;56.04;99808.09;294033;33;891;-77
2023/09/30 00:28:38;;;;;;;426.23;381.05;;;;;;;21.66;55.45;99812.44;286321;34;1318;-77
2023/09/30 00:28:49;;;;;;;428.90;383.73;;;;;;;21.65;55.25;99811.59;290213;33;5136;-77
2023/09/30 00:28:59;;;;;;;426.35;381.25;;;;;;;21.62;55.67;99808.34;290313;33;5474;-77
2023/09/30 00:29:10;;;;;;;426.07;380.97;;;;;;;21.63;55.60;99810.03;287216;34;1376;-77
2023/09/30 00:29:20;;;;;;;415.00;370.38;;;;;;;21.62;55.65;99808.34;285923;34;8497;-77
2023/09/30 00:29:31;;;;;;;410.48;366.00;;;;;;;21.61;55.39;99807.50;280829;34;9034;-77
2023/09/30 00:29:41;;;;;;;412.37;367.87;;;;;;;21.62;55.82;99813.66;279931;35;1247;-77
2023/09/30 00:29:52;;;;;;;418.58;373.85;;;;;;;21.61;55.72;99804.00;281333;34;8505;-77
2023/09/30 00:30:03;;;;;;;417.40;372.80;;;;;;;21.61;55.87;99811.97;276897;35;8580;-77
2023/09/30 00:30:13;;;;;;;410.55;366.25;;;;;;;21.61;56.26;99806.66;274532;35;7933;-77
2023/09/30 00:30:24;;;;;;;408.97;364.70;;;;;;;21.61;56.05;99809.31;278141;35;867;-77
2023/09/30 00:32:17;;;;;;;395.91;341.62;;;;;;;21.63;55.50;99816.22;2495001;27;20505;-77
2023/09/30 00:32:28;;;;;;;414.67;370.17;;;;;;;21.63;55.18;99807.38;351323;28;1801;-76
2023/09/30 00:32:39;;;;;;;421.17;376.35;;;;;;;21.62;55.69;99809.19;348897;28;1351;-76
2023/09/30 00:32:49;;;;;;;417.75;372.98;;;;;;;21.63;55.58;99804.72;349001;28;816;-76
2023/09/30 00:33:00;;;;;;;414.15;369.40;;;;;;;21.64;55.40;99809.06;347368;28;1280;-76
2023/09/30 00:33:10;;;;;;;408.03;363.37;;;;;;;21.65;55.32;99808.09;348728;28;1219;-76
2023/09/30 00:33:21;;;;;;;408.80;364.17;;;;;;;21.66;55.13;99801.78;349303;28;1073;-76
2023/09/30 00:33:31;;;;;;;402.70;358.27;;;;;;;21.66;55.15;99804.44;347477;28;883;-78
2023/09/30 00:33:41;;;;;;;413.07;368.20;;;;;;;21.65;55.49;99802.75;346986;28;1705;-76
2023/09/30 00:33:52;;;;;;;413.23;368.17;;;;;;;21.67;55.21;99811.44;350005;28;1293;-76
2023/09/30 00:34:02;;;;;;;421.33;376.07;;;;;;;21.68;55.13;99807.81;350219;28;977;-76
2023/09/30 00:34:13;;;;;;;410.85;366.23;;;;;;;21.68;55.33;99805.13;351146;28;1303;-77
2023/09/30 00:34:23;;;;;;;408.60;364.13;;;;;;;21.67;55.34;99800.78;351644;28;1183;-76
2023/09/30 00:34:34;;;;;;;406.70;361.92;;;;;;;21.67;54.88;99806.97;350250;28;1222;-77
2023/09/30 00:34:45;;;;;;;409.55;364.60;;;;;;;21.65;54.98;99802.75;350113;28;1298;-77
2023/09/30 00:34:55;;;;;;;413.53;368.63;;;;;;;21.65;55.14;99806.28;346861;28;2739;-76
2023/09/30 00:35:11;;;;;;;411.20;366.48;;;;;;;21.67;54.95;99800.78;345018;28;4779;-76
2023/09/30 00:35:21;;;;;;;414.40;369.60;;;;;;;21.66;55.07;99804.44;347552;28;5628;-76
2023/09/30 00:35:32;;;;;;;414.42;369.52;;;;;;;21.65;55.16;99806.28;348973;28;1547;-76
2023/09/30 00:35:43;;;;;;;413.98;369.08;;;;;;;21.67;55.08;99803.44;348697;28;1407;-76
2023/09/30 00:35:53;;;;;;;421.48;376.42;;;;;;;21.67;55.01;99803.44;344581;28;1216;-76
2023/09/30 00:36:08;;;;;;;425.23;380.13;;;;;;;21.65;55.38;99803.59;347211;28;1072;-76
2023/09/30 00:36:18;;;;;;;433.50;388.25;;;;;;;21.62;54.97;99800.34;343183;28;4950;-76
2023/09/30 00:36:29;;;;;;;427.83;382.70;;;;;;;21.61;55.12;99801.31;348399;28;1370;-76
2023/09/30 00:36:39;;;;;;;423.27;378.15;;;;;;;21.62;55.48;99803.88;345179;28;1390;-76
2023/09/30 00:36:49;;;;;;;413.40;368.53;;;;;;;21.61;55.45;99801.31;347502;28;865;-76
2023/09/30 00:37:00;;;;;;;417.55;372.63;;;;;;;21.60;55.65;99799.63;347237;28;811;-76
2023/09/30 00:37:10;;;;;;;414.50;369.57;;;;;;;21.59;55.67;99804.13;344718;28;1239;-76
2023/09/30 00:37:21;;;;;;;417.27;372.25;;;;;;;21.55;55.31;99800.00;345680;28;1712;-76
2023/09/30 00:37:31;;;;;;;425.37;380.00;;;;;;;21.52;55.47;99806.44;346115;28;826;-76
2023/09/30 00:37:42;;;;;;;425.17;379.80;;;;;;;21.51;55.45;99807.41;345456;28;1282;-76
2023/09/30 00:37:53;;;;;;;424.45;379.02;;;;;;;21.52;55.88;99797.59;347515;28;1539;-76
2023/09/30 00:38:03;;;;;;;422.42;377.27;;;;;;;21.53;55.66;99805.47;348983;28;918;-76
2023/09/30 00:38:14;;;;;;;429.00;383.60;;;;;;;21.55;55.60;99802.69;346014;28;1247;-76
2023/09/30 00:38:25;;;;;;;432.75;387.23;;;;;;;21.55;55.90;99805.34;346060;28;1424;-76
2023/09/30 00:38:38;;;;;;;431.83;386.40;;;;;;;21.57;55.78;99800.72;345064;28;1511;-76
2023/09/30 00:38:48;;;;;;;446.40;400.63;;;;;;;21.57;55.40;99801.56;342039;28;980;-76
2023/09/30 00:38:59;;;;;;;462.80;416.37;;;;;;;21.58;55.56;99794.44;339334;29;1356;-76
2023/09/30 00:39:10;;;;;;;484.23;437.13;;;;;;;21.60;55.56;99805.81;341036;28;1226;-76
2023/09/30 00:39:20;;;;;;;490.20;443.03;;;;;;;21.61;55.68;99802.16;343333;28;1603;-76
2023/09/30 00:39:32;;;;;;;494.02;446.77;;;;;;;21.63;55.27;99804.72;342863;28;1499;-77
2023/09/30 00:39:44;;;;;;;474.73;428.08;;;;;;;21.62;55.29;99798.53;342808;28;1849;-76
2023/09/30 00:39:55;;;;;;;454.05;407.92;;;;;;;21.63;55.27;99807.38;341403;28;1281;-76
2023/09/30 00:40:06;;;;;;;446.33;400.33;;;;;;;21.64;55.31;99809.06;340913;28;1417;-76
2023/09/30 00:40:17;;;;;;;437.27;391.05;;;;;;;21.64;55.27;99803.72;339449;29;887;-76
2023/09/30 00:40:27;;;;;;;438.73;392.53;;;;;;;21.63;55.35;99799.38;342433;28;1490;-76
2023/09/30 00:40:37;;;;;;;440.02;393.85;;;;;;;21.62;55.36;99803.88;343103;28;1405;-76
2023/09/30 00:40:48;;;;;;;437.40;391.50;;;;;;;21.63;55.61;99796.72;338047;29;1284;-76
2023/09/30 00:40:59;;;;;;;435.00;389.20;;;;;;;21.64;55.52;99801.06;340696;28;1557;-77
2023/09/30 00:41:09;;;;;;;441.38;395.55;;;;;;;21.63;55.43;99805.56;342180;28;1530;-77
2023/09/30 00:41:19;;;;;;;453.93;407.83;;;;;;;21.62;55.34;99798.53;344718;28;833;-77
2023/09/30 00:41:30;;;;;;;470.77;424.15;;;;;;;21.63;55.48;99805.56;343289;28;1335;-77
2023/09/30 00:41:40;;;;;;;467.70;421.03;;;;;;;21.62;55.24;99800.34;341782;28;1192;-77
2023/09/30 00:41:51;;;;;;;463.47;416.67;;;;;;;21.61;55.46;99802.16;342622;28;1660;-77
2023/09/30 00:42:03;;;;;;;451.15;404.45;;;;;;;21.60;55.17;99804.97;340608;29;1293;-76
2023/09/30 00:42:13;;;;;;;443.98;397.85;;;;;;;21.60;55.31;99799.63;341721;28;1511;-77
2023/09/30 00:42:24;;;;;;;448.37;402.43;;;;;;;21.54;55.40;99799.16;342942;28;1643;-77
2023/09/30 00:42:34;;;;;;;444.02;398.40;;;;;;;21.53;55.41;99800.16;336748;29;1234;-77
2023/09/30 00:42:46;;;;;;;439.65;394.05;;;;;;;21.52;55.47;99800.28;336598;29;1937;-77
2023/09/30 00:42:57;;;;;;;438.00;392.40;;;;;;;21.52;55.81;99803.78;337239;29;2043;-77
2023/09/30 00:43:07;;;;;;;435.13;389.15;;;;;;;21.52;55.93;99808.25;335611;29;2278;-76
2023/09/30 00:43:19;;;;;;;441.27;394.65;;;;;;;21.52;55.80;99801.13;336724;29;1606;-76
2023/09/30 00:43:29;;;;;;;442.25;395.67;;;;;;;21.52;55.35;99803.78;332686;29;1639;-77
2023/09/30 00:43:41;;;;;;;444.88;399.05;;;;;;;21.53;55.58;99802.81;332106;29;954;-77
2023/09/30 00:43:51;;;;;;;442.04;396.12;;;;;;;21.52;55.68;99803.78;331472;29;1076;-77
2023/09/30 00:44:02;;;;;;;442.47;396.53;;;;;;;21.54;55.32;99807.16;330030;29;1490;-76
2023/09/30 00:44:13;;;;;;;444.70;398.65;;;;;;;21.56;55.33;99807.88;328909;29;2938;-77
2023/09/30 00:44:24;;;;;;;440.87;394.77;;;;;;;21.57;55.33;99804.25;328899;29;4488;-77
2023/09/30 00:44:34;;;;;;;441.05;394.55;;;;;;;21.57;55.20;99806.91;327533;30;3184;-77
2023/09/30 00:44:45;;;;;;;444.07;397.40;;;;;;;21.55;55.42;99800.84;327236;29;5474;-77
2023/09/30 00:44:55;;;;;;;442.67;396.23;;;;;;;21.56;55.23;99799.88;329099;29;2425;-77
2023/09/30 00:45:06;;;;;;;442.08;395.98;;;;;;;21.57;55.31;99806.06;325694;30;1411;-77
2023/09/30 00:45:17;;;;;;;435.13;389.52;;;;;;;21.59;55.34;99804.13;321970;30;1480;-76
2023/09/30 00:45:28;;;;;;;435.80;390.13;;;;;;;21.58;55.72;99803.28;321211;30;2742;-75
2023/09/30 00:45:38;;;;;;;428.38;382.90;;;;;;;21.60;55.58;99810.28;318542;30;1868;-77
2023/09/30 00:45:49;;;;;;;421.95;376.58;;;;;;;21.59;55.43;99801.44;320818;30;1278;-76
2023/09/30 00:46:21;;;;;;;422.35;377.15;;;;;;;21.60;55.84;99800.47;320583;30;1563;-76
2023/09/30 00:46:32;;;;;;;415.80;371.17;;;;;;;21.61;55.74;99806.66;316128;31;5404;-77
2023/09/30 00:46:43;;;;;;;415.10;370.38;;;;;;;21.62;55.71;99803.88;316011;31;2794;-76
2023/09/30 00:46:54;;;;;;;414.27;369.30;;;;;;;21.60;55.35;99804.97;313746;31;3208;-76
2023/09/30 00:47:05;;;;;;;416.55;371.45;;;;;;;21.61;55.40;99806.66;312925;31;989;-76
2023/09/30 00:47:15;;;;;;;416.53;371.43;;;;;;;21.61;55.40;99807.50;310034;31;2911;-76
2023/09/30 00:47:26;;;;;;;416.57;371.60;;;;;;;21.61;55.34;99801.31;312174;31;3242;-78
2023/09/30 00:47:37;;;;;;;419.23;374.15;;;;;;;21.61;55.81;99801.31;312667;31;3374;-77
2023/09/30 00:47:47;;;;;;;417.60;372.55;;;;;;;21.62;55.79;99805.69;310531;31;1264;-77
2023/09/30 00:47:57;;;;;;;421.57;376.47;;;;;;;21.62;55.65;99803.03;312583;31;3004;-76
2023/09/30 00:48:08;;;;;;;419.50;374.30;;;;;;;21.63;55.58;99799.38;312110;31;2210;-76
2023/09/30 00:48:18;;;;;;;427.17;381.63;;;;;;;21.63;55.33;99799.38;312693;31;1629;-76
2023/09/30 00:48:29;;;;;;;426.02;380.67;;;;;;;21.63;55.91;99804.72;313212;31;2855;-76
2023/09/30 00:48:39;;;;;;;430.83;385.43;;;;;;;21.62;55.72;99803.88;311577;31;3539;-76
2023/09/30 00:48:49;;;;;;;421.60;376.00;;;;;;;21.63;55.51;99804.72;310600;31;1506;-76
2023/09/30 00:49:00;;;;;;;422.25;376.40;;;;;;;21.62;55.44;99805.69;309474;31;3984;-76
2023/09/30 00:49:10;;;;;;;421.77;375.90;;;;;;;21.61;55.32;99806.66;310842;31;3956;-76
2023/09/30 00:49:21;;;;;;;424.98;379.60;;;;;;;21.62;55.74;99803.03;311532;31;1402;-76
2023/09/30 00:49:32;;;;;;;425.50;380.25;;;;;;;21.60;55.85;99808.47;308490;32;1369;-77
2023/09/30 00:49:43;;;;;;;418.20;373.10;;;;;;;21.61;55.35;99802.16;308227;31;4949;-77
2023/09/30 00:49:53;;;;;;;418.47;373.37;;;;;;;21.61;55.60;99806.66;305004;32;4542;-76
2023/09/30 00:50:07;;;;;;;420.42;375.08;;;;;;;21.62;55.39;99803.03;306240;32;900;-76
2023/09/30 00:50:21;;;;;;;424.65;379.08;;;;;;;21.61;55.63;99807.50;307186;32;5060;-76
2023/09/30 00:50:31;;;;;;;421.08;375.70;;;;;;;21.61;55.60;99802.16;303047;32;1484;-77
2023/09/30 00:50:42;;;;;;;419.87;374.77;;;;;;;21.62;55.56;99811.00;299730;32;4305;-77
2023/09/30 00:50:52;;;;;;;421.17;375.97;;;;;;;21.62;55.73;99805.69;296865;32;5360;-77
2023/09/30 00:51:03;;;;;;;425.07;379.57;;;;;;;21.62;55.61;99803.03;292819;33;1487;-77
2023/09/30 00:51:13;;;;;;;415.77;370.47;;;;;;;21.61;55.72;99811.97;294195;33;5538;-76
2023/09/30 00:51:23;;;;;;;418.87;373.53;;;;;;;21.59;55.48;99806.78;292232;33;5077;-77
2023/09/30 00:51:34;;;;;;;417.93;372.70;;;;;;;21.59;55.36;99806.78;289188;34;1348;-77
2023/09/30 00:51:47;;;;;;;425.90;380.35;;;;;;;21.60;55.71;99810.28;287382;34;4919;-77
2023/09/30 00:51:57;;;;;;;424.25;378.58;;;;;;;21.60;55.68;99805.81;286427;34;5545;-77
2023/09/30 00:52:08;;;;;;;424.70;379.17;;;;;;;21.61;55.45;99810.16;284738;34;6518;-77
2023/09/30 00:52:18;;;;;;;428.95;383.40;;;;;;;21.61;55.32;99804.84;284502;34;861;-77
2023/09/30 00:52:30;;;;;;;420.23;375.13;;;;;;;21.62;55.54;99813.66;281169;34;5112;-77
2023/09/30 00:52:41;;;;;;;419.17;373.90;;;;;;;21.62;55.36;99809.19;280553;34;5341;-77
2023/09/30 00:52:52;;;;;;;423.45;377.48;;;;;;;21.63;55.48;99804.72;278730;35;6363;-77
2023/09/30 00:53:02;;;;;;;427.02;380.77;;;;;;;21.63;55.37;99804.72;278947;35;1310;-77
2023/09/30 00:53:13;;;;;;;424.80;378.93;;;;;;;21.62;55.73;99809.19;276254;35;7686;-77
2023/09/30 00:53:23;;;;;;;421.73;376.40;;;;;;;21.62;55.33;99803.03;274050;35;7718;-77